Time;durP1;ratioP1;P1;durP2;ratioP2;P2;SDS_P1;SDS_P2;PMS_P1;PMS_P2;Temp;Humidity;BMP_temperature;BMP_pressure;BME280_temperature;BME280_humidity;BME280_pressure;Samples;Min_cycle;Max_cycle;Signal;HPM_P1;HPM_P2
2021/01/14 00:03:50;;;;;;;17.83;8.05;;;4.00;99.90;;;;;;6776916;87;20206;-77
2021/01/14 00:13:50;;;;;;;18.35;7.55;;;3.90;99.90;;;;;;6750702;77;20194;-76
2021/01/14 00:23:51;;;;;;;19.98;6.60;;;3.80;99.90;;;;;;6755197;87;20336;-76
2021/01/14 00:33:51;;;;;;;15.45;4.72;;;3.90;99.90;;;;;;6763227;87;20251;-76
2021/01/14 00:43:52;;;;;;;11.77;4.68;;;3.90;99.90;;;;;;6759228;88;20210;-77
2021/01/14 00:53:52;;;;;;;15.35;5.43;;;4.00;99.90;;;;;;6762625;87;20702;-76
2021/01/14 01:03:54;;;;;;;11.63;5.47;;;4.00;99.90;;;;;;6757579;88;20202;-76
2021/01/14 01:13:54;;;;;;;12.65;6.53;;;4.00;99.90;;;;;;6752389;88;20239;-75
2021/01/14 01:23:55;;;;;;;16.10;5.35;;;4.00;99.90;;;;;;6753727;87;20180;-75
2021/01/14 01:33:55;;;;;;;13.70;4.37;;;3.90;99.90;;;;;;6754854;87;20257;-75
2021/01/14 01:43:56;;;;;;;12.23;4.67;;;3.90;99.90;;;;;;6753046;88;20184;-75
2021/01/14 01:53:57;;;;;;;11.80;4.60;;;3.80;99.90;;;;;;6754321;88;21007;-75
2021/01/14 02:03:57;;;;;;;8.20;2.87;;;3.80;99.90;;;;;;6751528;88;20318;-75
2021/01/14 02:14:07;;;;;;;6.72;1.48;;;3.70;99.90;;;;;;6761704;87;20199;-75
2021/01/14 02:24:32;;;;;;;6.85;1.00;;;3.60;99.90;;;;;;6753459;88;20322;-75
2021/01/14 02:34:32;;;;;;;6.90;0.98;;;3.40;99.90;;;;;;6755604;88;20198;-75
2021/01/14 02:44:33;;;;;;;8.65;1.40;;;3.30;99.90;;;;;;6755797;87;20171;-76
2021/01/14 02:54:34;;;;;;;6.15;1.12;;;3.30;99.90;;;;;;6755739;87;20213;-75
2021/01/14 03:04:35;;;;;;;7.55;1.23;;;3.30;99.90;;;;;;6752043;88;20758;-75
2021/01/14 03:14:35;;;;;;;8.85;1.02;;;3.10;99.90;;;;;;6746760;87;20271;-75
2021/01/14 03:24:37;;;;;;;2.95;0.55;;;3.10;99.90;;;;;;6751969;88;20204;-75
2021/01/14 03:34:37;;;;;;;6.97;0.65;;;3.10;99.90;;;;;;6757724;88;20187;-75
2021/01/14 03:44:38;;;;;;;5.78;0.82;;;3.10;99.90;;;;;;6760996;88;20216;-74
2021/01/14 03:54:38;;;;;;;4.18;0.60;;;3.00;99.90;;;;;;6749834;88;20209;-74
2021/01/14 04:04:41;;;;;;;2.62;0.60;;;3.00;99.90;;;;;;6759544;88;20265;-74
2021/01/14 04:14:50;;;;;;;3.03;0.50;;;3.00;99.90;;;;;;6741350;88;20219;-75
2021/01/14 04:24:50;;;;;;;4.25;0.70;;;2.90;99.90;;;;;;6731749;88;20650;-74
2021/01/14 04:34:51;;;;;;;7.53;0.70;;;2.90;99.90;;;;;;6734872;88;20198;-73
2021/01/14 04:44:51;;;;;;;4.05;0.52;;;2.90;99.90;;;;;;6734481;88;20219;-74
2021/01/14 04:54:53;;;;;;;4.85;0.70;;;2.80;99.90;;;;;;6736555;88;20696;-74
2021/01/14 05:04:54;;;;;;;3.65;0.77;;;2.70;99.90;;;;;;6738068;88;20234;-74
2021/01/14 05:14:54;;;;;;;7.37;0.80;;;2.80;99.90;;;;;;6748541;87;20825;-74
2021/01/14 05:25:06;;;;;;;8.30;0.77;;;2.80;99.90;;;;;;6752768;88;20165;-74
2021/01/14 05:35:12;;;;;;;8.02;0.90;;;2.70;99.90;;;;;;6755584;87;20176;-74
2021/01/14 05:45:22;;;;;;;7.25;0.90;;;2.60;99.90;;;;;;6760247;87;20188;-74
2021/01/14 05:55:27;;;;;;;4.00;1.17;;;2.50;99.90;;;;;;6756031;88;20635;-75
2021/01/14 06:05:34;;;;;;;4.75;1.10;;;2.50;99.90;;;;;;6757491;88;20677;-74
2021/01/14 06:15:34;;;;;;;8.47;1.00;;;2.40;99.90;;;;;;6746871;87;20303;-74
2021/01/14 06:25:47;;;;;;;6.75;1.30;;;2.50;99.90;;;;;;6752637;87;20819;-73
2021/01/14 06:35:48;;;;;;;10.75;1.37;;;2.30;99.90;;;;;;6752621;88;20723;-74
2021/01/14 06:45:59;;;;;;;7.50;1.10;;;2.30;99.90;;;;;;6753745;88;20204;-75
2021/01/14 06:56:00;;;;;;;4.70;1.35;;;2.20;99.90;;;;;;6748623;88;20251;-74
2021/01/14 07:06:41;;;;;;;5.47;1.30;;;2.20;99.90;;;;;;6754399;77;20266;-77
2021/01/14 07:16:43;;;;;;;6.40;1.20;;;2.10;99.90;;;;;;6747324;88;20674;-79
2021/01/14 07:26:52;;;;;;;7.03;1.27;;;2.10;99.90;;;;;;6752242;88;20232;-77
2021/01/14 07:36:53;;;;;;;5.20;0.88;;;2.20;99.90;;;;;;6751369;88;20212;-78
2021/01/14 07:46:53;;;;;;;8.77;1.50;;;2.20;99.90;;;;;;6745211;88;20702;-76
2021/01/14 07:56:56;;;;;;;3.95;0.88;;;2.20;99.90;;;;;;6759405;88;20225;-77
2021/01/14 08:07:25;;;;;;;7.50;1.30;;;2.40;99.90;;;;;;6764121;88;20210;-77
2021/01/14 08:17:27;;;;;;;6.07;1.30;;;2.40;99.90;;;;;;6748306;88;20202;-78
2021/01/14 08:27:32;;;;;;;5.90;1.12;;;2.40;99.90;;;;;;6738301;88;21109;-77
2021/01/14 08:37:44;;;;;;;9.48;1.48;;;2.60;99.90;;;;;;6750691;88;20222;-77
2021/01/14 08:48:05;;;;;;;5.90;1.10;;;2.60;99.90;;;;;;6751215;88;20202;-77
2021/01/14 08:58:07;;;;;;;8.88;1.52;;;2.70;99.90;;;;;;6758927;88;20260;-77
2021/01/14 09:08:09;;;;;;;7.65;1.35;;;2.70;99.90;;;;;;6744897;88;20177;-78
2021/01/14 09:18:10;;;;;;;4.97;1.55;;;2.80;99.90;;;;;;6746173;88;20193;-79
2021/01/14 09:28:11;;;;;;;6.82;1.45;;;2.90;99.90;;;;;;6746053;88;20248;-80
2021/01/14 09:38:12;;;;;;;4.93;1.55;;;3.00;99.90;;;;;;6756107;88;20235;-78
2021/01/14 09:48:13;;;;;;;7.20;1.10;;;2.90;99.90;;;;;;6762791;88;20194;-77
2021/01/14 09:58:20;;;;;;;3.33;1.10;;;3.10;99.90;;;;;;6767805;88;20195;-76
2021/01/14 10:08:22;;;;;;;7.30;1.62;;;3.00;99.90;;;;;;6762480;88;20184;-77
2021/01/14 10:18:24;;;;;;;4.78;1.40;;;3.10;99.90;;;;;;6757602;88;20205;-78
2021/01/14 10:28:25;;;;;;;7.68;1.50;;;3.00;99.90;;;;;;6760079;88;20672;-77
2021/01/14 10:38:26;;;;;;;4.90;1.60;;;3.20;99.90;;;;;;6748179;88;20277;-77
2021/01/14 10:48:37;;;;;;;5.28;1.67;;;3.30;99.90;;;;;;6749581;88;20210;-77
2021/01/14 10:58:40;;;;;;;10.10;1.50;;;3.30;99.90;;;;;;6754918;88;20256;-77
2021/01/14 11:08:44;;;;;;;7.30;1.75;;;3.10;99.90;;;;;;6751661;88;20749;-77
2021/01/14 11:18:46;;;;;;;8.10;1.45;;;3.20;99.90;;;;;;6751889;88;20309;-77
2021/01/14 11:28:48;;;;;;;8.65;1.50;;;3.00;99.90;;;;;;6757481;88;20255;-80
2021/01/14 11:38:50;;;;;;;7.82;2.00;;;3.10;99.90;;;;;;6748591;88;20225;-77
2021/01/14 11:48:51;;;;;;;4.85;1.70;;;3.00;99.90;;;;;;6757725;88;20696;-78
2021/01/14 11:58:52;;;;;;;6.28;1.50;;;3.10;99.90;;;;;;6749364;88;20192;-78
2021/01/14 12:08:56;;;;;;;6.45;1.42;;;3.00;99.90;;;;;;6753395;88;20216;-78
2021/01/14 12:18:56;;;;;;;5.15;1.50;;;3.20;99.90;;;;;;6768569;88;20215;-78
2021/01/14 12:28:57;;;;;;;4.30;1.30;;;3.30;99.90;;;;;;6773192;88;20771;-77
2021/01/14 12:38:57;;;;;;;4.25;1.02;;;3.10;99.90;;;;;;6769926;88;20223;-79
2021/01/14 12:48:58;;;;;;;4.62;1.20;;;3.00;99.90;;;;;;6772709;88;20200;-77
2021/01/14 12:59:00;;;;;;;3.35;1.08;;;3.00;99.90;;;;;;6771481;88;20938;-78
2021/01/14 13:09:03;;;;;;;3.22;1.12;;;2.90;99.90;;;;;;6737931;88;20221;-76
2021/01/14 13:19:09;;;;;;;6.12;1.37;;;3.10;99.90;;;;;;6747905;88;20276;-77
2021/01/14 13:29:10;;;;;;;1.87;0.80;;;2.90;99.90;;;;;;6746926;88;20703;-77
2021/01/14 13:39:11;;;;;;;4.85;1.48;;;3.10;99.90;;;;;;6749054;88;20683;-76
2021/01/14 13:49:12;;;;;;;3.40;1.23;;;3.00;99.90;;;;;;6746650;88;20190;-74
2021/01/14 13:59:12;;;;;;;4.55;1.40;;;3.10;99.90;;;;;;6744576;88;20195;-76
2021/01/14 14:09:17;;;;;;;6.07;1.20;;;3.20;99.90;;;;;;6743643;88;20203;-76
2021/01/14 14:19:17;;;;;;;3.42;1.20;;;3.30;99.90;;;;;;6726145;88;20235;-76
2021/01/14 14:29:18;;;;;;;4.45;1.35;;;3.20;99.90;;;;;;6733632;88;20195;-76
2021/01/14 14:39:19;;;;;;;2.50;1.10;;;3.20;99.90;;;;;;6736869;88;20188;-75
2021/01/14 14:49:19;;;;;;;4.20;1.20;;;3.10;99.90;;;;;;6732409;88;20672;-75
2021/01/14 14:59:20;;;;;;;6.10;1.77;;;3.00;99.90;;;;;;6742747;88;20485;-76
2021/01/14 15:09:22;;;;;;;6.47;1.40;;;2.90;99.90;;;;;;6737865;88;20605;-76
2021/01/14 15:19:23;;;;;;;4.75;1.45;;;2.90;99.90;;;;;;6735765;88;20215;-76
2021/01/14 15:29:23;;;;;;;6.80;1.20;;;2.90;99.90;;;;;;6738561;88;20197;-76
2021/01/14 15:39:24;;;;;;;5.07;1.37;;;2.90;99.90;;;;;;6738580;88;20303;-76
2021/01/14 15:49:24;;;;;;;3.42;1.27;;;2.70;99.90;;;;;;6740703;88;20251;-75
2021/01/14 15:59:39;;;;;;;2.42;1.10;;;2.70;99.90;;;;;;6738010;88;20229;-76
2021/01/14 16:09:42;;;;;;;4.22;1.40;;;2.70;99.90;;;;;;6737891;88;20434;-75
2021/01/14 16:19:42;;;;;;;2.30;1.40;;;2.60;99.90;;;;;;6744643;88;21083;-76
2021/01/14 16:29:43;;;;;;;3.00;1.30;;;2.60;99.90;;;;;;6741325;88;20196;-75
2021/01/14 16:39:44;;;;;;;5.25;1.40;;;2.50;99.90;;;;;;6756621;88;20575;-75
2021/01/14 16:49:46;;;;;;;5.28;1.73;;;2.30;99.90;;;;;;6745107;88;20634;-77
2021/01/14 16:59:47;;;;;;;3.37;1.27;;;2.30;99.90;;;;;;6730512;88;20255;-75
2021/01/14 17:09:47;;;;;;;5.20;1.90;;;2.20;99.90;;;;;;6742552;88;20319;-73
2021/01/14 17:19:48;;;;;;;4.97;1.48;;;2.10;99.90;;;;;;6748417;88;20221;-74
2021/01/14 17:29:48;;;;;;;6.47;1.87;;;2.10;99.90;;;;;;6756378;88;20225;-76
2021/01/14 17:39:49;;;;;;;4.65;1.65;;;2.00;99.90;;;;;;6744895;88;20337;-74
2021/01/14 17:49:49;;;;;;;7.25;2.00;;;2.10;99.90;;;;;;6742672;88;20274;-79
2021/01/14 17:59:50;;;;;;;6.35;1.90;;;2.00;99.90;;;;;;6749833;88;20223;-75
2021/01/14 18:09:50;;;;;;;5.97;2.22;;;1.90;99.90;;;;;;6761512;88;20628;-75
2021/01/14 18:19:51;;;;;;;5.40;2.42;;;1.90;99.90;;;;;;6770564;88;20200;-77
2021/01/14 18:29:52;;;;;;;8.70;2.65;;;1.80;99.90;;;;;;6770690;88;20292;-78
2021/01/14 18:39:52;;;;;;;5.25;2.30;;;1.70;99.90;;;;;;6761367;88;21114;-78
2021/01/14 18:49:53;;;;;;;6.90;2.70;;;1.70;99.90;;;;;;6761116;87;20272;-76
2021/01/14 18:59:53;;;;;;;4.57;2.40;;;1.70;99.90;;;;;;6759959;88;20225;-76
2021/01/14 19:09:54;;;;;;;5.20;2.35;;;1.60;99.90;;;;;;6728382;88;20628;-75
2021/01/14 19:19:56;;;;;;;4.78;2.28;;;1.40;99.90;;;;;;6728743;88;20196;-77
2021/01/14 19:29:56;;;;;;;5.12;2.42;;;1.40;99.90;;;;;;6727733;88;20685;-76
2021/01/14 19:39:57;;;;;;;4.53;2.10;;;1.30;99.90;;;;;;6728485;88;20222;-77
2021/01/14 19:49:57;;;;;;;5.25;2.40;;;1.20;99.90;;;;;;6729186;88;20317;-76
2021/01/14 19:59:58;;;;;;;5.97;2.30;;;1.20;99.90;;;;;;6725879;88;20699;-75
2021/01/14 20:09:58;;;;;;;5.40;2.30;;;1.40;99.90;;;;;;6729379;88;20640;-77
2021/01/14 20:20:00;;;;;;;5.47;2.17;;;1.30;99.90;;;;;;6735409;88;20716;-78
2021/01/14 20:30:01;;;;;;;5.78;2.50;;;1.30;99.90;;;;;;6746462;88;20675;-76
2021/01/14 20:40:02;;;;;;;5.25;2.40;;;1.20;99.90;;;;;;6739375;88;20202;-76
2021/01/14 20:50:04;;;;;;;5.00;2.30;;;1.20;99.90;;;;;;6741736;88;20563;-76
2021/01/14 21:00:05;;;;;;;8.35;2.80;;;1.10;99.90;;;;;;6744553;88;20247;-77
2021/01/14 21:10:07;;;;;;;5.68;2.65;;;0.90;99.90;;;;;;6740634;88;20216;-75
2021/01/14 21:20:08;;;;;;;4.70;2.35;;;0.70;99.90;;;;;;6743211;88;20724;-77
2021/01/14 21:30:09;;;;;;;8.98;2.53;;;1.00;99.90;;;;;;6740475;88;20200;-76
2021/01/14 21:40:12;;;;;;;6.87;2.37;;;1.00;99.90;;;;;;6738064;88;20250;-76
2021/01/14 21:50:12;;;;;;;6.75;2.20;;;0.80;99.90;;;;;;6741186;88;20346;-76
2021/01/14 22:00:14;;;;;;;6.07;2.50;;;0.80;99.90;;;;;;6738567;88;20178;-76
2021/01/14 22:10:14;;;;;;;6.00;2.47;;;0.80;99.90;;;;;;6740502;88;20247;-76
2021/01/14 22:20:15;;;;;;;4.45;2.20;;;0.90;99.90;;;;;;6739365;88;20198;-76
2021/01/14 22:30:16;;;;;;;5.72;2.42;;;0.60;99.90;;;;;;6738293;88;20216;-76
2021/01/14 22:40:17;;;;;;;6.07;2.35;;;0.40;99.90;;;;;;6753051;88;20200;-76
2021/01/14 22:50:18;;;;;;;8.07;2.70;;;0.40;99.90;;;;;;6751134;88;20239;-76
2021/01/14 23:00:19;;;;;;;4.57;2.58;;;0.20;99.90;;;;;;6756703;88;20200;-76
2021/01/14 23:10:19;;;;;;;7.50;2.80;;;0.20;99.90;;;;;;6750115;88;20196;-77
2021/01/14 23:20:20;;;;;;;6.47;2.80;;;0.30;99.90;;;;;;6746804;88;20293;-76
2021/01/14 23:30:21;;;;;;;7.43;2.42;;;0.30;99.90;;;;;;6746961;88;20211;-75
2021/01/14 23:40:21;;;;;;;5.40;2.45;;;0.20;99.90;;;;;;6742032;88;20391;-76
2021/01/14 23:50:22;;;;;;;5.68;2.62;;;0.20;99.90;;;;;;6743722;88;20193;-77
